Time;durP1;ratioP1;P1;durP2;ratioP2;P2;SDS_P1;SDS_P2;PMS_P1;PMS_P2;Temp;Humidity;BMP_temperature;BMP_pressure;BME280_temperature;BME280_humidity;BME280_pressure;Samples;Min_cycle;Max_cycle;Signal;HPM_P1;HPM_P2
2023/09/21 00:02:23;;;;;;;10.43;4.77;;;18.60;24.70;;;;;;5023330;28;20483;-64
2023/09/21 00:04:51;;;;;;;8.83;4.90;;;18.50;24.70;;;;;;5020703;28;20488;-64
2023/09/21 00:07:18;;;;;;;9.30;4.50;;;18.50;25.00;;;;;;5028339;28;20479;-64
2023/09/21 00:09:46;;;;;;;9.30;5.20;;;18.50;24.70;;;;;;5028121;28;20463;-64
2023/09/21 00:12:13;;;;;;;7.90;4.23;;;18.50;24.40;;;;;;5028781;28;20491;-64
2023/09/21 00:14:41;;;;;;;8.73;4.70;;;18.40;24.30;;;;;;5027251;28;20487;-64
2023/09/21 00:17:08;;;;;;;7.40;5.30;;;18.40;24.40;;;;;;5025573;28;20470;-64
2023/09/21 00:19:37;;;;;;;7.17;5.17;;;18.40;24.60;;;;;;5028596;28;20543;-64
2023/09/21 00:22:05;;;;;;;7.80;4.87;;;18.40;24.90;;;;;;5028804;28;20470;-64
2023/09/21 00:24:32;;;;;;;7.20;4.50;;;18.30;24.80;;;;;;5026472;28;20600;-65
2023/09/21 00:27:00;;;;;;;9.53;4.50;;;18.30;25.10;;;;;;5028315;28;20489;-65
2023/09/21 00:29:27;;;;;;;9.53;5.53;;;18.30;24.90;;;;;;5027017;28;20479;-65
2023/09/21 00:31:57;;;;;;;7.70;4.67;;;18.30;25.00;;;;;;5027113;28;20479;-65
2023/09/21 00:34:24;;;;;;;6.87;4.53;;;18.20;25.00;;;;;;5028064;28;20485;-65
2023/09/21 00:36:52;;;;;;;7.83;4.50;;;18.20;25.60;;;;;;5029000;28;21183;-64
2023/09/21 00:39:20;;;;;;;9.37;4.97;;;18.20;25.50;;;;;;5028920;28;20459;-64
2023/09/21 00:41:47;;;;;;;7.77;5.00;;;18.20;25.50;;;;;;5029739;28;20482;-65
2023/09/21 00:44:14;;;;;;;8.43;5.43;;;18.10;26.10;;;;;;5024880;28;20479;-65
2023/09/21 00:46:43;;;;;;;7.23;4.73;;;18.10;26.20;;;;;;5025010;28;21025;-65
2023/09/21 00:49:13;;;;;;;8.30;4.83;;;18.00;26.60;;;;;;5025254;28;20518;-65
2023/09/21 00:51:41;;;;;;;7.40;4.77;;;18.00;26.20;;;;;;5025532;28;21011;-65
2023/09/21 00:54:09;;;;;;;7.47;4.50;;;18.00;26.10;;;;;;5024559;28;20556;-65
2023/09/21 00:56:38;;;;;;;6.10;4.37;;;17.90;26.10;;;;;;5028456;28;20463;-65
2023/09/21 00:59:06;;;;;;;7.40;4.80;;;17.90;26.00;;;;;;5025986;28;20481;-65
2023/09/21 01:01:37;;;;;;;7.27;5.00;;;17.90;26.00;;;;;;5026096;28;20482;-65
2023/09/21 01:04:06;;;;;;;7.57;4.50;;;17.80;26.00;;;;;;5025391;28;20494;-65
2023/09/21 01:06:33;;;;;;;10.30;5.00;;;17.80;26.30;;;;;;5023183;28;20509;-65
2023/09/21 01:09:00;;;;;;;9.63;5.57;;;17.70;26.40;;;;;;5023493;28;20468;-65
2023/09/21 01:11:30;;;;;;;8.30;5.13;;;17.80;26.60;;;;;;5026645;28;20996;-65
2023/09/21 01:13:56;;;;;;;7.83;4.80;;;17.70;26.80;;;;;;5028233;28;20482;-65
2023/09/21 01:16:24;;;;;;;9.93;5.10;;;17.70;26.90;;;;;;5024890;28;20487;-65
2023/09/21 01:18:52;;;;;;;7.73;4.33;;;17.60;27.00;;;;;;5022789;28;20459;-65
2023/09/21 01:21:26;;;;;;;7.13;4.77;;;17.60;27.00;;;;;;5032409;28;20463;-65
2023/09/21 01:23:56;;;;;;;6.83;4.50;;;17.60;27.10;;;;;;5028441;28;20487;-65
2023/09/21 01:26:23;;;;;;;7.27;4.20;;;17.50;27.20;;;;;;5027492;28;20476;-65
2023/09/21 01:28:50;;;;;;;7.57;4.70;;;17.50;27.40;;;;;;5027401;28;20469;-65
2023/09/21 01:31:17;;;;;;;7.00;4.63;;;17.50;27.60;;;;;;5028105;28;20486;-65
2023/09/21 01:33:44;;;;;;;7.80;5.17;;;17.50;27.40;;;;;;5026441;28;20638;-65
2023/09/21 01:36:12;;;;;;;7.17;4.67;;;17.40;27.50;;;;;;5023739;28;20470;-65
2023/09/21 01:38:43;;;;;;;9.70;5.47;;;17.50;27.80;;;;;;5022279;28;20497;-65
2023/09/21 01:41:12;;;;;;;8.47;4.77;;;17.40;27.80;;;;;;5027894;28;20473;-65
2023/09/21 01:43:39;;;;;;;7.30;5.40;;;17.40;27.80;;;;;;5025596;28;21076;-66
2023/09/21 01:46:06;;;;;;;7.70;5.03;;;17.40;27.80;;;;;;5027095;28;20542;-65
2023/09/21 01:48:33;;;;;;;10.03;5.23;;;17.40;27.90;;;;;;5023286;28;20471;-65
2023/09/21 01:51:00;;;;;;;7.97;4.90;;;17.30;28.00;;;;;;5026194;28;20499;-65
2023/09/21 01:53:27;;;;;;;6.97;5.03;;;17.30;28.00;;;;;;5018877;28;20582;-65
2023/09/21 01:55:54;;;;;;;8.30;4.70;;;17.30;28.10;;;;;;5025677;28;20467;-65
2023/09/21 01:58:23;;;;;;;6.33;4.80;;;17.30;28.30;;;;;;5024280;28;20470;-65
2023/09/21 02:00:50;;;;;;;6.50;4.33;;;17.20;28.70;;;;;;5026344;28;20475;-65
2023/09/21 02:03:18;;;;;;;6.17;4.57;;;17.10;29.00;;;;;;5024838;28;20471;-65
2023/09/21 02:05:47;;;;;;;5.83;3.70;;;17.10;28.80;;;;;;5026385;28;20498;-65
2023/09/21 02:08:15;;;;;;;7.23;4.20;;;17.10;28.90;;;;;;5022407;28;20561;-65
2023/09/21 02:10:43;;;;;;;7.57;5.27;;;17.00;28.80;;;;;;5021301;28;20471;-65
2023/09/21 02:13:09;;;;;;;7.30;4.70;;;17.00;29.00;;;;;;5024993;28;20463;-65
2023/09/21 02:15:39;;;;;;;8.13;4.90;;;16.90;29.00;;;;;;5029243;28;20494;-65
2023/09/21 02:18:07;;;;;;;8.40;5.03;;;16.90;28.50;;;;;;5023186;28;20499;-65
2023/09/21 02:20:38;;;;;;;11.20;6.27;;;16.90;28.60;;;;;;5027234;28;20467;-65
2023/09/21 02:23:06;;;;;;;9.03;5.17;;;16.90;28.30;;;;;;5025808;28;20462;-65
2023/09/21 02:25:35;;;;;;;12.30;7.57;;;16.90;28.20;;;;;;5025387;28;20471;-65
2023/09/21 02:28:09;;;;;;;11.53;6.80;;;16.90;28.50;;;;;;5027858;28;20478;-65
2023/09/21 02:30:39;;;;;;;9.40;5.70;;;16.80;28.70;;;;;;5024363;28;20509;-65
2023/09/21 02:33:06;;;;;;;6.73;4.20;;;16.80;28.40;;;;;;5023677;28;20570;-65
2023/09/21 02:35:34;;;;;;;9.17;5.37;;;16.80;28.60;;;;;;5023916;28;20477;-65
2023/09/21 02:38:03;;;;;;;8.00;5.00;;;16.90;28.50;;;;;;5022647;28;20845;-65
2023/09/21 02:40:29;;;;;;;10.43;5.37;;;16.80;28.20;;;;;;5027000;28;20562;-66
2023/09/21 02:42:56;;;;;;;10.47;4.70;;;16.80;28.00;;;;;;5021743;28;21433;-65
2023/09/21 02:45:25;;;;;;;10.10;5.37;;;16.80;27.90;;;;;;5026245;28;20482;-65
2023/09/21 02:47:55;;;;;;;10.40;4.87;;;16.70;27.70;;;;;;5024385;28;20494;-65
2023/09/21 02:50:25;;;;;;;9.67;4.83;;;16.70;27.70;;;;;;5025977;28;20462;-65
2023/09/21 02:52:54;;;;;;;7.87;5.20;;;16.70;27.50;;;;;;5022914;28;20475;-65
2023/09/21 02:55:21;;;;;;;6.90;4.40;;;16.70;27.50;;;;;;5024025;28;21031;-65
2023/09/21 02:57:54;;;;;;;8.90;4.60;;;16.70;27.40;;;;;;5026278;28;20458;-65
2023/09/21 03:00:25;;;;;;;7.33;4.20;;;16.70;27.60;;;;;;5026391;28;20967;-65
2023/09/21 03:02:55;;;;;;;6.97;4.23;;;16.70;28.00;;;;;;5024221;28;21186;-65
2023/09/21 03:05:24;;;;;;;8.37;4.37;;;16.60;28.20;;;;;;5026599;28;20482;-63
2023/09/21 03:07:51;;;;;;;9.00;4.53;;;16.70;28.30;;;;;;5027806;28;20837;-65
2023/09/21 03:10:18;;;;;;;8.20;4.87;;;16.70;28.60;;;;;;5025220;28;20474;-65
2023/09/21 03:12:47;;;;;;;7.77;4.47;;;16.70;28.70;;;;;;5024431;28;20553;-65
2023/09/21 03:15:16;;;;;;;7.60;5.33;;;16.70;29.00;;;;;;5026102;28;20487;-66
2023/09/21 03:17:43;;;;;;;10.30;4.73;;;16.70;29.00;;;;;;5023339;28;20481;-66
2023/09/21 03:20:28;;;;;;;7.83;5.13;;;16.60;29.00;;;;;;5025607;28;20506;-65
2023/09/21 03:22:55;;;;;;;8.67;4.70;;;16.70;29.20;;;;;;5025558;28;21168;-65
2023/09/21 03:25:27;;;;;;;8.47;4.87;;;16.60;29.10;;;;;;5026432;28;20482;-65
2023/09/21 03:27:55;;;;;;;7.40;4.40;;;16.70;29.30;;;;;;5024512;28;20474;-65
2023/09/21 03:30:23;;;;;;;6.43;4.33;;;16.60;29.10;;;;;;5026611;28;20486;-65
2023/09/21 03:32:50;;;;;;;7.13;4.60;;;16.60;29.10;;;;;;5022283;28;21302;-65
2023/09/21 03:35:18;;;;;;;8.60;4.07;;;16.60;29.30;;;;;;5024921;28;20487;-65
2023/09/21 03:37:47;;;;;;;8.57;4.77;;;16.60;29.70;;;;;;5019209;28;20465;-66
2023/09/21 03:40:14;;;;;;;8.40;4.20;;;16.60;29.70;;;;;;5024641;28;20487;-66
2023/09/21 03:42:42;;;;;;;7.40;5.27;;;16.60;29.80;;;;;;5028995;28;20477;-66
2023/09/21 03:45:11;;;;;;;8.60;5.90;;;16.60;30.10;;;;;;5022098;28;20544;-66
2023/09/21 03:47:40;;;;;;;10.97;5.93;;;16.60;30.10;;;;;;5028766;28;20494;-66
2023/09/21 03:50:11;;;;;;;6.57;5.00;;;16.60;29.80;;;;;;5025235;28;20462;-66
2023/09/21 03:52:40;;;;;;;6.37;4.23;;;16.60;30.00;;;;;;5030225;28;20561;-66
2023/09/21 03:55:10;;;;;;;6.77;3.80;;;16.60;29.80;;;;;;5029170;28;20570;-66
2023/09/21 03:57:37;;;;;;;5.90;4.20;;;16.60;29.60;;;;;;5026300;28;20463;-66
2023/09/21 04:00:17;;;;;;;6.20;3.70;;;16.60;29.50;;;;;;5025919;28;21172;-66
2023/09/21 04:02:46;;;;;;;9.60;4.20;;;16.70;29.40;;;;;;5026418;28;21042;-69
2023/09/21 04:05:18;;;;;;;7.47;4.80;;;16.70;29.30;;;;;;5022874;28;20865;-71
2023/09/21 04:07:46;;;;;;;7.80;4.37;;;16.70;29.20;;;;;;5039378;23;20482;-66
2023/09/21 04:10:14;;;;;;;9.07;4.73;;;16.70;29.10;;;;;;4990022;28;20468;-66
2023/09/21 04:12:40;;;;;;;9.30;4.03;;;16.60;29.20;;;;;;4990341;28;20465;-66
2023/09/21 04:15:08;;;;;;;8.37;5.23;;;16.60;29.40;;;;;;4994879;28;20519;-66
2023/09/21 04:17:35;;;;;;;7.27;4.67;;;16.50;29.60;;;;;;4990656;28;20464;-67
2023/09/21 04:20:09;;;;;;;8.47;4.90;;;16.50;29.40;;;;;;4992176;28;20476;-66
2023/09/21 04:22:36;;;;;;;7.07;4.50;;;16.50;30.10;;;;;;4991216;28;20467;-67
2023/09/21 04:25:08;;;;;;;10.40;5.20;;;16.50;30.00;;;;;;4992178;28;20488;-66
2023/09/21 04:27:34;;;;;;;7.00;5.00;;;16.50;30.30;;;;;;4990678;28;20488;-66
2023/09/21 04:30:02;;;;;;;7.93;4.80;;;16.50;30.20;;;;;;4992152;28;20531;-67
2023/09/21 04:32:29;;;;;;;6.63;4.80;;;16.40;30.40;;;;;;4989332;28;20846;-68
2023/09/21 04:34:55;;;;;;;7.10;4.57;;;16.40;30.50;;;;;;4984584;28;20582;-67
2023/09/21 04:37:22;;;;;;;5.90;4.60;;;16.40;30.50;;;;;;4990082;28;21012;-68
2023/09/21 04:39:50;;;;;;;8.27;5.40;;;16.40;30.40;;;;;;4988689;28;20472;-68
2023/09/21 04:42:18;;;;;;;8.37;5.50;;;16.40;30.50;;;;;;4990216;28;21087;-68
2023/09/21 04:44:45;;;;;;;8.10;5.60;;;16.30;30.90;;;;;;4988690;28;20535;-69
2023/09/21 04:47:11;;;;;;;8.53;5.40;;;16.30;30.90;;;;;;4992972;28;20496;-68
2023/09/21 04:49:39;;;;;;;9.97;5.23;;;16.30;30.70;;;;;;4994699;28;20464;-69
2023/09/21 04:52:05;;;;;;;7.33;4.50;;;16.30;30.80;;;;;;4990594;28;20498;-67
2023/09/21 04:54:32;;;;;;;8.20;5.33;;;16.30;30.60;;;;;;4987820;28;20579;-66
2023/09/21 04:56:59;;;;;;;6.40;4.80;;;16.30;30.80;;;;;;4990217;28;20475;-66
2023/09/21 04:59:28;;;;;;;7.20;4.67;;;16.30;30.80;;;;;;4989366;28;20737;-67
2023/09/21 05:01:54;;;;;;;7.20;5.10;;;16.30;31.10;;;;;;4986769;28;20476;-67
2023/09/21 05:04:21;;;;;;;10.30;5.20;;;16.30;31.50;;;;;;4987605;28;20484;-67
2023/09/21 05:06:48;;;;;;;8.83;6.13;;;16.30;31.40;;;;;;4985254;28;20493;-67
2023/09/21 05:09:15;;;;;;;6.97;5.30;;;16.30;31.50;;;;;;4990582;28;20476;-67
2023/09/21 05:11:41;;;;;;;8.63;6.40;;;16.30;31.50;;;;;;4982963;28;20461;-68
2023/09/21 05:14:08;;;;;;;8.30;5.57;;;16.30;31.40;;;;;;4986036;28;20491;-67
2023/09/21 05:16:37;;;;;;;8.27;5.47;;;16.30;31.40;;;;;;4985818;28;20480;-67
2023/09/21 05:19:04;;;;;;;7.43;5.47;;;16.40;31.70;;;;;;4986731;28;20469;-68
2023/09/21 05:21:31;;;;;;;12.80;6.00;;;16.40;31.80;;;;;;4987791;28;20472;-68
2023/09/21 05:23:58;;;;;;;8.03;6.33;;;16.40;31.50;;;;;;4988435;28;20629;-67
2023/09/21 05:26:26;;;;;;;13.83;5.30;;;16.50;31.40;;;;;;4989461;28;20468;-68
2023/09/21 05:28:53;;;;;;;7.37;5.57;;;16.50;31.60;;;;;;4987236;28;20535;-67
2023/09/21 05:31:20;;;;;;;8.80;5.40;;;16.50;31.60;;;;;;4988707;28;20487;-67
2023/09/21 05:33:48;;;;;;;8.47;5.40;;;16.60;31.30;;;;;;4986492;28;20489;-67
2023/09/21 05:36:15;;;;;;;9.30;5.37;;;16.60;31.30;;;;;;4992219;28;20477;-67
2023/09/21 05:38:41;;;;;;;7.90;5.70;;;16.60;31.20;;;;;;4991595;28;20468;-68
2023/09/21 05:41:10;;;;;;;8.07;5.20;;;16.70;31.40;;;;;;4983328;28;20464;-69
2023/09/21 05:43:37;;;;;;;7.87;5.57;;;16.70;31.30;;;;;;4988517;28;20480;-68
2023/09/21 05:46:04;;;;;;;8.83;5.63;;;16.80;31.20;;;;;;4985103;28;20457;-69
2023/09/21 05:48:32;;;;;;;7.87;5.20;;;16.80;30.60;;;;;;4984929;28;20547;-68
2023/09/21 05:51:01;;;;;;;8.33;5.87;;;16.90;30.50;;;;;;4988342;28;20503;-69
2023/09/21 05:53:30;;;;;;;10.80;4.77;;;17.10;30.40;;;;;;4992802;28;21024;-69
2023/09/21 05:55:57;;;;;;;8.87;4.97;;;17.20;29.90;;;;;;4986456;28;20472;-69
2023/09/21 05:58:24;;;;;;;7.70;5.73;;;17.40;29.60;;;;;;4986499;28;20472;-67
2023/09/21 06:00:52;;;;;;;7.97;5.43;;;17.50;29.40;;;;;;4986457;28;20492;-67
2023/09/21 06:03:19;;;;;;;7.83;5.30;;;17.70;29.50;;;;;;4987775;28;20472;-67
2023/09/21 06:05:46;;;;;;;8.37;5.63;;;17.80;29.20;;;;;;4987439;28;20469;-68
2023/09/21 06:08:14;;;;;;;14.00;5.87;;;18.00;28.90;;;;;;4986318;28;20584;-68
2023/09/21 06:10:42;;;;;;;10.50;6.00;;;18.10;28.60;;;;;;4987726;28;20464;-68
2023/09/21 06:13:08;;;;;;;6.90;4.50;;;18.30;28.50;;;;;;4987129;28;20476;-68
2023/09/21 06:15:37;;;;;;;9.33;4.47;;;18.50;27.60;;;;;;4985519;28;21067;-68
2023/09/21 06:18:04;;;;;;;6.90;3.70;;;18.80;26.60;;;;;;4984733;28;20866;-66
2023/09/21 06:20:31;;;;;;;6.40;4.17;;;19.10;25.40;;;;;;4985778;28;20461;-67
2023/09/21 06:22:58;;;;;;;7.40;4.27;;;19.20;23.70;;;;;;4976638;28;21092;-67
2023/09/21 06:25:26;;;;;;;7.03;4.23;;;19.40;22.60;;;;;;5011780;23;20492;-68
2023/09/21 06:27:52;;;;;;;12.53;4.90;;;19.60;21.90;;;;;;5004613;28;20999;-67
2023/09/21 06:30:22;;;;;;;8.23;4.70;;;19.80;21.80;;;;;;5008697;28;20471;-67
2023/09/21 06:32:48;;;;;;;7.13;4.03;;;20.50;21.10;;;;;;5008663;28;21567;-67
2023/09/21 06:35:15;;;;;;;6.27;4.47;;;21.00;19.10;;;;;;5002923;28;20493;-66
2023/09/21 06:37:42;;;;;;;8.80;4.50;;;21.50;17.30;;;;;;5004139;28;20468;-66
2023/09/21 06:40:10;;;;;;;8.20;5.20;;;21.90;16.20;;;;;;5002112;28;20564;-67
2023/09/21 06:42:38;;;;;;;8.73;4.83;;;22.40;14.80;;;;;;5006932;28;20482;-66
2023/09/21 06:45:06;;;;;;;6.43;4.40;;;22.70;13.80;;;;;;5004857;28;20487;-66
2023/09/21 06:47:32;;;;;;;7.63;4.43;;;23.10;12.90;;;;;;5008002;28;21074;-67
2023/09/21 06:49:59;;;;;;;6.13;4.30;;;23.50;11.90;;;;;;5007376;28;20480;-67
2023/09/21 06:52:26;;;;;;;6.90;4.53;;;24.20;10.40;;;;;;5004140;28;20467;-67
2023/09/21 06:54:54;;;;;;;8.60;4.50;;;25.40;8.00;;;;;;5000646;28;20484;-67
2023/09/21 06:57:23;;;;;;;6.20;4.00;;;27.40;4.10;;;;;;5004198;28;20471;-67
2023/09/21 06:59:52;;;;;;;7.47;4.67;;;29.00;1.00;;;;;;5006882;28;20492;-67
2023/09/21 07:02:19;;;;;;;6.10;4.17;;;30.00;1.00;;;;;;5002610;28;20557;-67
2023/09/21 07:04:46;;;;;;;5.80;4.10;;;31.30;1.00;;;;;;5004430;28;20988;-70
2023/09/21 07:07:15;;;;;;;6.93;5.30;;;31.70;1.00;;;;;;5007059;28;20467;-67
2023/09/21 07:09:44;;;;;;;7.13;4.13;;;32.00;1.00;;;;;;5003367;28;20483;-68
2023/09/21 07:12:12;;;;;;;5.63;4.23;;;33.80;1.00;;;;;;5004303;28;20467;-68
2023/09/21 07:14:38;;;;;;;6.40;4.33;;;34.70;1.00;;;;;;5002421;28;20488;-69
2023/09/21 07:17:07;;;;;;;7.20;4.37;;;35.10;1.00;;;;;;5004790;28;20459;-67
2023/09/21 07:19:34;;;;;;;7.80;3.93;;;34.00;1.00;;;;;;5006363;28;20456;-67
2023/09/21 07:22:02;;;;;;;10.30;3.90;;;32.90;1.00;;;;;;5003846;28;20464;-67
2023/09/21 07:24:29;;;;;;;6.43;4.20;;;32.10;1.00;;;;;;5000005;28;20495;-68
2023/09/21 07:26:56;;;;;;;7.40;4.70;;;33.10;1.00;;;;;;5003641;28;20690;-67
2023/09/21 07:29:24;;;;;;;6.00;3.63;;;35.20;1.00;;;;;;4998865;28;20491;-68
2023/09/21 07:31:51;;;;;;;6.70;4.33;;;37.10;1.00;;;;;;5002537;28;20995;-68
2023/09/21 07:34:19;;;;;;;5.60;3.73;;;38.60;1.00;;;;;;5004283;28;20484;-68
2023/09/21 07:36:47;;;;;;;7.00;4.20;;;39.60;1.00;;;;;;5002566;28;20811;-67
2023/09/21 07:39:14;;;;;;;5.40;3.90;;;40.50;1.00;;;;;;5003531;28;20557;-67
2023/09/21 07:41:41;;;;;;;8.30;4.50;;;41.20;1.00;;;;;;5004464;28;20472;-67
2023/09/21 07:44:09;;;;;;;6.53;4.20;;;42.40;1.00;;;;;;5004154;28;20511;-67
2023/09/21 07:46:36;;;;;;;6.50;5.07;;;41.90;1.00;;;;;;5002237;28;20495;-67
2023/09/21 07:49:04;;;;;;;7.13;4.53;;;39.90;1.00;;;;;;5003814;28;21030;-67
2023/09/21 07:51:33;;;;;;;6.10;4.53;;;37.90;1.00;;;;;;5002109;28;21187;-67
2023/09/21 07:54:00;;;;;;;8.10;4.70;;;36.20;1.00;;;;;;4997269;28;20494;-71
2023/09/21 07:56:27;;;;;;;8.13;5.40;;;34.90;1.00;;;;;;5005823;28;20496;-69
2023/09/21 07:58:54;;;;;;;7.93;4.90;;;33.70;1.00;;;;;;5005523;28;20468;-67
2023/09/21 08:01:21;;;;;;;6.20;4.77;;;32.90;1.00;;;;;;5004749;28;20476;-68
2023/09/21 08:03:50;;;;;;;8.20;4.90;;;32.50;1.00;;;;;;5003092;28;21000;-68
2023/09/21 08:06:17;;;;;;;6.33;5.00;;;32.40;1.00;;;;;;5002112;28;20565;-67
2023/09/21 08:08:46;;;;;;;7.17;5.40;;;32.40;1.00;;;;;;5005761;28;20533;-68
2023/09/21 08:11:12;;;;;;;9.30;5.57;;;32.40;1.00;;;;;;5006359;28;20815;-67
2023/09/21 08:13:39;;;;;;;26.87;5.33;;;32.00;1.00;;;;;;5005142;28;21023;-67
2023/09/21 08:16:08;;;;;;;10.33;5.00;;;32.00;1.00;;;;;;5001966;28;20471;-67
2023/09/21 08:18:36;;;;;;;6.10;4.20;;;32.40;1.00;;;;;;5004232;28;21255;-68
2023/09/21 08:21:03;;;;;;;10.30;4.80;;;34.30;1.00;;;;;;5001360;28;20467;-69
2023/09/21 08:23:30;;;;;;;9.80;5.03;;;35.40;1.00;;;;;;5001292;28;20554;-71
2023/09/21 08:25:58;;;;;;;10.47;5.27;;;36.20;1.00;;;;;;5004626;28;20471;-65
2023/09/21 08:28:25;;;;;;;7.67;3.87;;;36.20;1.00;;;;;;5005085;28;20492;-65
2023/09/21 08:30:54;;;;;;;9.33;5.70;;;37.10;1.00;;;;;;5007373;28;21132;-64
2023/09/21 08:33:22;;;;;;;9.40;5.10;;;39.40;1.00;;;;;;5008165;28;20511;-65
2023/09/21 08:35:49;;;;;;;7.07;4.47;;;41.40;1.00;;;;;;5007919;28;20474;-64
2023/09/21 08:38:17;;;;;;;8.13;5.10;;;43.10;1.00;;;;;;5006310;28;20469;-65
2023/09/21 08:40:46;;;;;;;6.00;4.70;;;44.50;1.00;;;;;;5009844;28;20830;-66
2023/09/21 08:43:22;;;;;;;8.20;4.47;;;45.40;1.00;;;;;;5007274;28;20519;-65
2023/09/21 08:45:51;;;;;;;7.23;4.23;;;46.50;1.00;;;;;;5004167;28;20487;-65
2023/09/21 08:48:20;;;;;;;8.33;4.07;;;47.70;1.00;;;;;;5008215;28;20491;-65
2023/09/21 08:50:49;;;;;;;6.13;3.97;;;47.50;1.00;;;;;;5007364;28;20509;-66
2023/09/21 08:53:20;;;;;;;5.83;4.20;;;47.50;1.00;;;;;;5006860;28;20991;-65
2023/09/21 08:55:49;;;;;;;4.90;3.87;;;48.20;1.00;;;;;;5007054;28;20471;-65
2023/09/21 08:58:23;;;;;;;6.50;3.83;;;48.80;1.00;;;;;;5007841;28;20456;-67
2023/09/21 09:00:53;;;;;;;5.90;3.47;;;49.60;1.00;;;;;;5003532;28;20853;-67
2023/09/21 09:03:21;;;;;;;6.17;3.67;;;50.10;1.00;;;;;;5007086;28;20480;-69
2023/09/21 09:05:49;;;;;;;7.10;3.27;;;50.30;1.00;;;;;;5005390;28;20468;-69
2023/09/21 09:08:16;;;;;;;5.37;3.60;;;50.30;1.00;;;;;;5024288;23;20495;-67
2023/09/21 09:10:43;;;;;;;4.80;3.20;;;50.20;1.00;;;;;;5031402;28;20458;-69
2023/09/21 09:13:10;;;;;;;5.17;3.30;;;50.40;1.00;;;;;;5029258;28;20520;-69
2023/09/21 09:15:41;;;;;;;6.53;3.00;;;50.60;1.00;;;;;;5026583;28;20466;-69
2023/09/21 09:18:09;;;;;;;5.97;2.70;;;50.80;1.00;;;;;;5025418;28;20876;-70
2023/09/21 09:20:37;;;;;;;5.23;2.70;;;51.20;1.00;;;;;;5028545;28;20469;-70
2023/09/21 09:23:09;;;;;;;4.50;2.47;;;51.40;1.00;;;;;;5031264;28;20524;-69
2023/09/21 09:25:36;;;;;;;4.47;2.67;;;51.50;1.00;;;;;;5028608;28;20464;-69
2023/09/21 09:28:05;;;;;;;3.77;2.20;;;51.60;1.00;;;;;;5026210;28;20462;-69
2023/09/21 09:30:32;;;;;;;4.87;2.57;;;52.10;1.00;;;;;;5027264;28;20489;-69
2023/09/21 09:33:02;;;;;;;4.13;2.20;;;52.00;1.00;;;;;;5029008;28;20475;-69
2023/09/21 09:35:32;;;;;;;4.30;2.57;;;51.00;1.00;;;;;;5032433;28;20569;-69
2023/09/21 09:37:59;;;;;;;7.60;2.60;;;49.50;1.00;;;;;;5034357;28;20977;-69
2023/09/21 09:40:28;;;;;;;3.83;1.90;;;48.20;1.00;;;;;;5025831;28;20494;-69
2023/09/21 09:42:57;;;;;;;5.40;2.70;;;47.20;1.00;;;;;;5030184;28;20493;-66
2023/09/21 09:45:25;;;;;;;4.80;2.10;;;46.20;1.00;;;;;;5024430;28;20498;-65
2023/09/21 09:47:55;;;;;;;3.90;2.13;;;44.90;1.00;;;;;;5028766;28;20466;-66
2023/09/21 09:50:25;;;;;;;5.10;2.60;;;43.90;1.00;;;;;;5035841;28;20524;-64
2023/09/21 09:53:00;;;;;;;3.87;2.20;;;43.50;1.00;;;;;;5031206;28;20459;-63
2023/09/21 09:55:31;;;;;;;7.00;2.87;;;44.00;1.00;;;;;;5024636;28;20950;-68
2023/09/21 09:57:59;;;;;;;6.60;2.73;;;46.00;1.00;;;;;;5021385;28;20482;-67
2023/09/21 10:00:27;;;;;;;4.63;2.10;;;47.50;1.00;;;;;;5026571;28;20475;-67
2023/09/21 10:02:55;;;;;;;4.90;2.33;;;48.40;1.00;;;;;;5032698;28;20465;-67
2023/09/21 10:05:24;;;;;;;5.50;2.00;;;49.10;1.00;;;;;;5027720;28;20487;-67
2023/09/21 10:07:52;;;;;;;4.30;1.93;;;49.50;1.00;;;;;;5025580;28;20475;-67
2023/09/21 10:10:20;;;;;;;3.47;1.80;;;50.10;1.00;;;;;;5027310;28;22404;-67
2023/09/21 10:12:50;;;;;;;4.70;1.80;;;50.60;1.00;;;;;;5030137;28;20500;-68
2023/09/21 10:15:17;;;;;;;6.97;2.07;;;50.90;1.00;;;;;;5022991;28;20496;-67
2023/09/21 10:17:50;;;;;;;3.20;1.80;;;51.10;1.00;;;;;;5023355;28;20462;-67
2023/09/21 10:20:24;;;;;;;6.47;2.00;;;51.20;1.00;;;;;;5027309;28;20467;-67
2023/09/21 10:22:53;;;;;;;3.87;1.90;;;51.20;1.00;;;;;;5026011;28;20481;-68
2023/09/21 10:25:39;;;;;;;4.37;2.23;;;51.30;1.00;;;;;;5027403;28;20505;-67
2023/09/21 10:28:38;;;;;;;4.50;1.77;;;51.40;1.00;;;;;;5022772;28;20958;-67
2023/09/21 10:31:23;;;;;;;4.00;1.50;;;51.40;1.00;;;;;;5019213;28;20479;-67
2023/09/21 10:34:08;;;;;;;3.07;1.53;;;50.70;1.00;;;;;;5028903;28;20517;-67
2023/09/21 10:36:38;;;;;;;3.80;1.50;;;50.20;1.00;;;;;;5023300;28;20459;-68
2023/09/21 10:39:25;;;;;;;3.63;2.10;;;49.90;1.00;;;;;;5024538;28;20467;-69
2023/09/21 10:41:54;;;;;;;5.33;2.20;;;49.30;1.00;;;;;;5020661;28;20466;-69
2023/09/21 10:44:56;;;;;;;4.80;2.20;;;47.20;1.00;;;;;;5021946;28;20487;-69
2023/09/21 10:47:29;;;;;;;5.23;2.13;;;44.80;1.00;;;;;;5017843;28;20474;-69
2023/09/21 10:49:58;;;;;;;7.13;2.83;;;42.60;1.00;;;;;;5021000;28;20489;-68
2023/09/21 10:52:26;;;;;;;4.57;2.47;;;41.40;1.00;;;;;;5021026;28;20492;-68
2023/09/21 10:54:55;;;;;;;5.40;2.10;;;40.90;1.00;;;;;;5027459;28;20880;-67
2023/09/21 10:57:25;;;;;;;4.60;1.80;;;40.70;1.00;;;;;;5023075;28;20474;-69
2023/09/21 10:59:53;;;;;;;4.53;2.00;;;41.00;1.00;;;;;;5025141;28;20463;-69
2023/09/21 11:02:21;;;;;;;5.37;2.60;;;41.10;1.00;;;;;;5025746;28;20474;-68
2023/09/21 11:04:49;;;;;;;5.17;2.13;;;41.80;1.00;;;;;;5028623;28;21051;-69
2023/09/21 11:07:17;;;;;;;6.10;2.43;;;42.30;1.00;;;;;;5029993;28;20467;-68
2023/09/21 11:09:44;;;;;;;6.27;2.23;;;42.50;1.00;;;;;;5024822;28;21135;-68
2023/09/21 11:12:14;;;;;;;5.50;2.17;;;42.50;1.00;;;;;;5027609;28;20459;-68
2023/09/21 11:14:43;;;;;;;7.23;2.50;;;42.00;1.00;;;;;;5021660;28;20541;-68
2023/09/21 11:17:11;;;;;;;5.60;2.83;;;41.60;1.00;;;;;;5025072;28;20474;-69
2023/09/21 11:19:39;;;;;;;4.90;2.60;;;41.00;1.00;;;;;;5026496;28;20454;-69
2023/09/21 11:22:06;;;;;;;5.23;2.93;;;40.60;1.00;;;;;;5025606;28;20480;-68
2023/09/21 11:24:33;;;;;;;4.93;2.10;;;40.10;1.00;;;;;;5029922;28;20503;-68
2023/09/21 11:27:03;;;;;;;4.40;2.13;;;39.60;1.00;;;;;;5026120;28;20462;-68
2023/09/21 11:29:31;;;;;;;4.13;2.20;;;39.00;1.00;;;;;;5028183;28;20487;-68
2023/09/21 11:31:58;;;;;;;8.20;2.30;;;38.50;1.00;;;;;;5022808;28;20894;-69
2023/09/21 11:34:25;;;;;;;5.10;2.00;;;37.90;1.00;;;;;;5028345;28;20486;-68
2023/09/21 11:36:53;;;;;;;4.57;2.40;;;37.40;1.00;;;;;;5026032;28;20459;-67
2023/09/21 11:39:22;;;;;;;4.33;1.93;;;36.70;1.00;;;;;;5026769;28;20466;-68
2023/09/21 11:41:52;;;;;;;4.13;2.10;;;35.80;1.00;;;;;;5029139;28;20552;-68
2023/09/21 11:44:19;;;;;;;4.50;2.17;;;34.90;1.00;;;;;;5025250;28;20481;-67
2023/09/21 11:46:48;;;;;;;5.20;2.30;;;34.30;1.00;;;;;;5026819;28;20530;-68
2023/09/21 11:49:17;;;;;;;4.27;2.20;;;33.70;1.00;;;;;;5025814;28;20490;-67
2023/09/21 11:51:47;;;;;;;6.93;2.40;;;33.20;1.00;;;;;;5028267;28;20472;-68
2023/09/21 11:54:14;;;;;;;5.00;2.27;;;32.80;1.00;;;;;;5023655;28;20560;-68
2023/09/21 11:56:43;;;;;;;7.10;2.50;;;32.50;1.00;;;;;;5028126;28;20478;-68
2023/09/21 11:59:11;;;;;;;6.47;2.67;;;32.20;1.00;;;;;;5022478;28;20837;-67
2023/09/21 12:01:37;;;;;;;5.47;2.43;;;31.90;1.00;;;;;;5029876;28;20915;-68
2023/09/21 12:04:08;;;;;;;4.43;2.37;;;31.70;1.00;;;;;;5027127;28;20569;-68
2023/09/21 12:06:35;;;;;;;6.93;2.03;;;31.60;1.00;;;;;;5034056;28;20466;-68
2023/09/21 12:09:06;;;;;;;5.60;2.43;;;31.50;1.00;;;;;;5028014;28;20466;-68
2023/09/21 12:11:34;;;;;;;5.70;2.67;;;31.40;1.00;;;;;;5025154;28;20470;-69
2023/09/21 12:14:04;;;;;;;4.77;2.27;;;31.30;1.00;;;;;;5023848;28;20564;-67
2023/09/21 12:16:31;;;;;;;7.30;2.30;;;31.20;1.00;;;;;;5032772;28;20480;-68
2023/09/21 12:18:58;;;;;;;6.50;2.53;;;31.00;1.00;;;;;;5025412;28;20520;-67
2023/09/21 12:21:26;;;;;;;4.30;2.33;;;30.90;1.00;;;;;;5027816;28;20462;-68
2023/09/21 12:23:53;;;;;;;4.70;2.00;;;30.70;1.00;;;;;;5026000;28;20876;-68
2023/09/21 12:26:20;;;;;;;9.47;2.43;;;30.40;1.00;;;;;;5036273;28;20467;-68
2023/09/21 12:28:46;;;;;;;5.10;2.40;;;30.20;1.00;;;;;;5026611;28;20467;-69
2023/09/21 12:31:14;;;;;;;5.40;2.23;;;30.00;1.00;;;;;;5025885;28;20490;-69
2023/09/21 12:33:41;;;;;;;5.10;2.57;;;29.90;1.00;;;;;;5032242;28;20581;-69
2023/09/21 12:36:08;;;;;;;8.90;2.57;;;29.70;1.00;;;;;;5024706;28;20509;-69
2023/09/21 12:38:40;;;;;;;5.03;2.27;;;29.60;1.00;;;;;;5019167;28;20462;-68
2023/09/21 12:41:09;;;;;;;4.97;2.27;;;29.40;1.00;;;;;;5027531;28;20542;-69
2023/09/21 12:43:38;;;;;;;4.77;2.10;;;29.20;1.00;;;;;;5025342;28;20579;-67
2023/09/21 12:46:04;;;;;;;4.37;2.27;;;29.10;1.00;;;;;;5027460;28;20478;-68
2023/09/21 12:48:31;;;;;;;5.93;2.00;;;29.10;1.00;;;;;;5024547;28;20466;-68
2023/09/21 12:50:58;;;;;;;4.80;2.13;;;29.10;1.00;;;;;;5028177;28;20975;-68
2023/09/21 12:53:24;;;;;;;5.20;2.43;;;28.90;1.00;;;;;;5026644;28;20483;-68
2023/09/21 12:55:53;;;;;;;6.83;2.60;;;28.80;1.00;;;;;;5030794;28;20474;-68
2023/09/21 12:58:19;;;;;;;4.73;2.00;;;28.70;1.00;;;;;;5036340;28;20481;-68